createdAt,value
2022-09-05T00:01:27.835Z,17.60
2022-09-05T00:04:10.557Z,17.60
2022-09-05T00:06:55.808Z,17.60
2022-09-05T00:09:45.678Z,17.60
2022-09-05T00:12:14.432Z,17.50
2022-09-05T00:15:14.295Z,17.50
2022-09-05T00:18:00.173Z,17.50
2022-09-05T00:24:22.454Z,17.50
2022-09-05T00:24:42.388Z,17.50
2022-09-05T00:26:36.098Z,17.70
2022-09-05T00:29:13.166Z,17.50
2022-09-05T00:31:57.390Z,17.50
2022-09-05T00:34:47.824Z,17.40
2022-09-05T00:37:32.052Z,17.40
2022-09-05T00:40:18.334Z,17.40
2022-09-05T00:42:50.893Z,17.40
2022-09-05T00:45:27.381Z,17.40
2022-09-05T00:48:00.114Z,17.40
2022-09-05T00:50:35.274Z,19.90
2022-09-05T00:53:10.186Z,17.40
2022-09-05T00:55:41.938Z,17.40
2022-09-05T00:58:20.747Z,17.30
2022-09-05T01:00:53.431Z,17.30
2022-09-05T01:03:33.626Z,17.30
2022-09-05T01:06:14.638Z,17.20
2022-09-05T01:08:56.720Z,17.30
2022-09-05T01:11:43.892Z,17.20
2022-09-05T01:14:25.848Z,17.30
2022-09-05T01:17:09.464Z,17.30
2022-09-05T01:19:48.470Z,17.20
2022-09-05T01:22:34.741Z,17.20
2022-09-05T01:25:19.877Z,17.20
2022-09-05T01:29:14.500Z,17.20
2022-09-05T01:30:48.259Z,17.20
2022-09-05T01:33:26.429Z,17.20
2022-09-05T01:36:09.837Z,17.10
2022-09-05T01:38:57.515Z,17.10
2022-09-05T01:41:40.198Z,17.10
2022-09-05T01:44:16.640Z,17.00
2022-09-05T01:46:51.542Z,17.00
2022-09-05T01:49:26.751Z,17.00
2022-09-05T01:52:11.107Z,16.90
2022-09-05T01:54:47.601Z,16.90
2022-09-05T01:57:21.260Z,17.30
2022-09-05T01:59:56.705Z,16.80
2022-09-05T02:02:37.671Z,16.80
2022-09-05T02:05:47.462Z,17.00
2022-09-05T02:08:29.726Z,16.70
2022-09-05T02:11:07.095Z,16.60
2022-09-05T02:13:52.423Z,16.50
2022-09-05T02:16:27.365Z,15.10
2022-09-05T02:19:01.580Z,16.40
2022-09-05T02:21:56.871Z,16.40
2022-09-05T02:24:28.714Z,16.30
2022-09-05T02:27:47.556Z,16.20
2022-09-05T02:30:17.666Z,16.20
2022-09-05T02:32:57.067Z,16.20
2022-09-05T02:35:31.195Z,16.00
2022-09-05T02:39:19.982Z,16.00
2022-09-05T02:45:09.268Z,15.90
2022-09-05T02:45:24.094Z,15.90
2022-09-05T02:46:44.951Z,15.90
2022-09-05T02:50:09.921Z,15.70
2022-09-05T02:57:23.678Z,15.80
2022-09-05T02:57:38.339Z,15.70
2022-09-05T02:58:05.404Z,16.00
2022-09-05T03:00:42.856Z,16.30
2022-09-05T03:03:26.616Z,14.70
2022-09-05T03:06:01.891Z,15.10
2022-09-05T03:08:55.900Z,14.80
2022-09-05T03:12:28.265Z,16.70
2022-09-05T03:15:32.900Z,15.50
2022-09-05T03:19:06.688Z,16.70
2022-09-05T03:22:00.155Z,15.50
2022-09-05T03:24:56.401Z,15.40
2022-09-05T03:28:04.082Z,15.40
2022-09-05T03:30:44.038Z,15.40
2022-09-05T03:33:57.823Z,15.30
2022-09-05T03:37:04.305Z,15.30
2022-09-05T03:40:16.072Z,15.30
2022-09-05T03:43:06.136Z,14.80
2022-09-05T03:46:01.174Z,14.40
2022-09-05T03:48:54.931Z,14.90
2022-09-05T03:57:05.076Z,14.50
2022-09-05T03:57:15.047Z,14.60
2022-09-05T03:58:55.817Z,14.70
2022-09-05T04:03:51.783Z,15.20
2022-09-05T04:08:08.891Z,15.20
2022-09-05T04:08:31.225Z,14.40
2022-09-05T04:10:28.551Z,16.40
2022-09-05T04:13:04.943Z,15.00
2022-09-05T04:15:45.082Z,14.60
2022-09-05T04:18:33.636Z,14.50
2022-09-05T04:21:09.829Z,15.90
2022-09-05T04:24:00.932Z,15.00
2022-09-05T04:26:49.037Z,14.90
2022-09-05T04:29:27.048Z,14.70
2022-09-05T04:32:18.153Z,14.20
2022-09-05T04:35:02.624Z,15.10
2022-09-05T04:37:48.252Z,14.20
2022-09-05T04:40:39.593Z,15.40
2022-09-05T04:43:14.200Z,15.90
2022-09-05T04:45:50.655Z,15.90
2022-09-05T04:48:25.870Z,15.10
2022-09-05T04:51:11.619Z,16.00
2022-09-05T04:54:06.013Z,15.50
2022-09-05T04:56:42.786Z,14.70
2022-09-05T05:04:15.370Z,15.60
2022-09-05T05:06:09.962Z,15.30
2022-09-05T05:06:16.674Z,15.60
2022-09-05T05:08:38.123Z,16.80
2022-09-05T05:17:22.320Z,16.00
2022-09-05T05:17:58.508Z,16.30
2022-09-05T05:18:14.835Z,16.30
2022-09-05T05:20:40.304Z,17.10
2022-09-05T05:23:07.896Z,17.70
2022-09-05T05:25:48.567Z,16.90
2022-09-05T05:28:27.966Z,16.10
2022-09-05T05:31:01.358Z,17.10
2022-09-05T05:33:35.907Z,17.10
2022-09-05T05:36:11.549Z,18.30
2022-09-05T05:38:50.115Z,18.80
2022-09-05T05:41:23.926Z,17.10
2022-09-05T05:43:53.081Z,17.70
2022-09-05T05:46:35.931Z,17.80
2022-09-05T05:49:40.055Z,18.60
2022-09-05T05:52:58.604Z,19.00
2022-09-05T05:55:58.227Z,17.90
2022-09-05T05:59:02.019Z,18.40
2022-09-05T06:02:22.204Z,18.90
2022-09-05T06:05:31.266Z,18.10
2022-09-05T06:10:58.944Z,18.20
2022-09-05T06:15:03.578Z,18.90
2022-09-05T06:16:05.779Z,20.10
2022-09-05T06:20:28.760Z,19.40
2022-09-05T06:23:03.797Z,20.50
2022-09-05T06:26:14.581Z,19.90
2022-09-05T06:29:03.993Z,20.50
2022-09-05T06:32:04.930Z,21.90
2022-09-05T06:35:00.105Z,21.30
2022-09-05T06:37:42.734Z,22.40
2022-09-05T06:40:19.646Z,22.20
2022-09-05T06:43:11.002Z,21.90
2022-09-05T06:46:07.170Z,22.20
2022-09-05T06:49:29.940Z,22.40
2022-09-05T06:52:29.230Z,23.40
2022-09-05T06:55:43.643Z,22.80
2022-09-05T06:59:09.606Z,23.40
2022-09-05T07:02:00.390Z,24.20
2022-09-05T07:05:37.628Z,25.90
2022-09-05T07:07:38.221Z,25.10
2022-09-05T07:10:37.381Z,27.30
2022-09-05T07:13:16.400Z,26.10
2022-09-05T07:15:57.404Z,26.20
2022-09-05T07:18:34.228Z,26.50
2022-09-05T07:21:18.062Z,26.70
2022-09-05T07:24:06.390Z,26.20
2022-09-05T07:26:54.435Z,25.60
2022-09-05T07:29:29.620Z,25.20
2022-09-05T07:32:02.255Z,25.70
2022-09-05T07:34:32.894Z,25.60
2022-09-05T07:37:15.949Z,26.80
2022-09-05T07:39:50.987Z,26.10
2022-09-05T07:42:26.870Z,26.70
2022-09-05T07:44:59.193Z,27.20
2022-09-05T07:47:33.045Z,27.00
2022-09-05T07:51:35.607Z,26.60
2022-09-05T07:56:52.289Z,27.10
2022-09-05T07:56:54.711Z,27.40
2022-09-05T07:58:49.817Z,27.50
2022-09-05T08:01:22.389Z,27.80
2022-09-05T08:04:00.391Z,28.30
2022-09-05T08:07:45.637Z,28.00
2022-09-05T08:10:08.083Z,29.10
2022-09-05T08:12:27.963Z,29.90
2022-09-05T08:15:06.987Z,29.20
2022-09-05T08:17:49.342Z,29.10
2022-09-05T08:20:32.767Z,29.20
2022-09-05T08:23:09.921Z,29.90
2022-09-05T08:25:57.398Z,29.80
2022-09-05T08:28:39.042Z,29.60
2022-09-05T08:31:14.333Z,30.00
2022-09-05T08:33:43.509Z,30.10
2022-09-05T08:36:26.566Z,29.90
2022-09-05T08:38:55.196Z,30.40
2022-09-05T08:41:51.152Z,30.50
2022-09-05T08:46:37.465Z,30.70
2022-09-05T08:47:19.405Z,30.60
2022-09-05T08:49:58.842Z,30.60
2022-09-05T08:52:35.869Z,30.70
2022-09-05T08:55:13.558Z,30.90
2022-09-05T08:57:57.909Z,31.20
2022-09-05T09:00:27.608Z,31.40
2022-09-05T09:03:18.375Z,31.50
2022-09-05T09:06:16.449Z,31.70
2022-09-05T09:09:05.127Z,31.80
2022-09-05T09:11:37.136Z,32.10
2022-09-05T09:14:41.403Z,32.70
2022-09-05T09:17:21.835Z,32.80
2022-09-05T09:19:53.781Z,32.70
2022-09-05T09:22:34.150Z,32.30
2022-09-05T09:25:14.942Z,32.00
2022-09-05T09:28:48.309Z,32.00
2022-09-05T09:30:58.082Z,32.00
2022-09-05T09:33:34.277Z,32.70
2022-09-05T09:36:08.102Z,32.80
2022-09-05T09:38:44.080Z,33.20
2022-09-05T09:41:28.817Z,33.50
2022-09-05T09:44:36.174Z,33.40
2022-09-05T09:47:09.259Z,33.50
2022-09-05T09:49:48.209Z,33.20
2022-09-05T09:52:37.419Z,33.10
2022-09-05T09:55:41.106Z,33.50
2022-09-05T09:58:32.041Z,34.00
2022-09-05T10:01:09.878Z,34.10
2022-09-05T10:08:21.328Z,33.80
2022-09-05T10:10:50.596Z,34.10
2022-09-05T10:14:45.028Z,35.30
2022-09-05T10:17:32.060Z,35.50
2022-09-05T10:20:10.898Z,35.50
2022-09-05T10:22:54.354Z,35.80
2022-09-05T10:25:36.728Z,35.80
2022-09-05T10:28:07.121Z,35.40
2022-09-05T10:30:50.339Z,34.20
2022-09-05T10:35:08.676Z,33.70
2022-09-05T10:36:32.576Z,33.30
2022-09-05T10:39:17.652Z,34.10
2022-09-05T10:41:49.986Z,34.50
2022-09-05T10:44:26.319Z,34.20
2022-09-05T10:47:04.640Z,33.20
2022-09-05T10:49:36.305Z,32.00
2022-09-05T10:52:18.989Z,31.10
2022-09-05T10:55:15.221Z,30.80
2022-09-05T10:57:55.873Z,31.10
2022-09-05T11:02:26.570Z,31.30
2022-09-05T11:03:45.649Z,31.20
2022-09-05T11:06:16.569Z,31.70
2022-09-05T11:08:57.125Z,32.90
2022-09-05T11:11:34.318Z,34.00
2022-09-05T11:14:26.812Z,34.70
2022-09-05T11:16:59.941Z,35.10
2022-09-05T11:19:33.324Z,35.20
2022-09-05T11:22:10.293Z,34.10
2022-09-05T11:24:55.609Z,33.50
2022-09-05T11:27:30.649Z,34.10
2022-09-05T11:30:03.273Z,34.50
2022-09-05T11:38:24.060Z,34.50
2022-09-05T11:39:48.172Z,34.70
2022-09-05T11:40:09.609Z,35.70
2022-09-05T11:42:35.986Z,36.50
2022-09-05T11:45:28.442Z,36.80
2022-09-05T11:48:20.260Z,36.80
2022-09-05T11:51:06.671Z,36.40
2022-09-05T11:54:19.646Z,36.30
2022-09-05T11:57:02.189Z,36.30
2022-09-05T12:00:33.469Z,36.70
2022-09-05T12:03:57.222Z,37.40
2022-09-05T12:06:56.364Z,37.50
2022-09-05T12:09:34.845Z,37.70
2022-09-05T12:12:38.464Z,37.80
2022-09-05T12:15:24.471Z,37.80
2022-09-05T12:18:02.801Z,37.40
2022-09-05T12:20:43.397Z,37.20
2022-09-05T12:23:49.282Z,37.10
2022-09-05T12:27:40.933Z,37.00
2022-09-05T12:29:32.904Z,36.90
2022-09-05T12:32:56.699Z,36.80
2022-09-05T12:36:05.373Z,36.40
2022-09-05T12:40:54.867Z,36.30
2022-09-05T12:41:34.769Z,36.40
2022-09-05T12:44:39.589Z,36.10
2022-09-05T12:46:26.201Z,36.30
2022-09-05T12:49:01.467Z,36.50
2022-09-05T12:51:47.059Z,36.70
2022-09-05T12:54:33.079Z,36.90
2022-09-05T13:02:45.359Z,37.40
2022-09-05T13:03:05.173Z,37.30
2022-09-05T13:03:27.904Z,36.70
2022-09-05T13:06:01.028Z,36.90
2022-09-05T13:08:49.069Z,36.90
2022-09-05T13:14:48.560Z,36.60
2022-09-05T13:15:03.003Z,36.10
2022-09-05T13:17:17.994Z,35.30
2022-09-05T13:19:52.061Z,34.60
2022-09-05T13:22:25.136Z,34.10
2022-09-05T13:25:07.369Z,34.10
2022-09-05T13:27:41.708Z,34.60
2022-09-05T13:34:17.758Z,35.00
2022-09-05T13:38:05.626Z,34.70
2022-09-05T13:38:12.079Z,34.80
2022-09-05T13:39:04.315Z,34.80
2022-09-05T13:41:37.130Z,34.20
2022-09-05T13:44:26.471Z,33.10
2022-09-05T13:47:02.926Z,33.00
2022-09-05T13:50:07.008Z,32.70
2022-09-05T13:52:42.597Z,33.20
2022-09-05T13:55:23.786Z,34.20
2022-09-05T13:57:57.269Z,35.30
2022-09-05T14:01:12.685Z,36.00
2022-09-05T14:08:17.936Z,36.70
2022-09-05T14:11:37.065Z,37.20
2022-09-05T14:20:37.424Z,37.80
2022-09-05T14:23:13.438Z,37.20
2022-09-05T14:25:45.215Z,36.60
2022-09-05T14:28:19.900Z,36.70
2022-09-05T14:32:13.125Z,36.80
2022-09-05T14:37:43.962Z,37.00
2022-09-05T14:37:52.009Z,36.90
2022-09-05T14:40:29.741Z,37.00
2022-09-05T14:43:39.822Z,37.20
2022-09-05T14:46:36.281Z,36.80
2022-09-05T14:49:56.504Z,36.80
2022-09-05T14:52:29.330Z,37.20
2022-09-05T15:02:41.493Z,37.10
2022-09-05T15:02:48.796Z,35.80
2022-09-05T15:06:39.901Z,34.50
2022-09-05T15:12:17.197Z,34.10
2022-09-05T15:12:32.994Z,33.80
2022-09-05T15:15:22.898Z,33.70
2022-09-05T15:18:00.081Z,33.40
2022-09-05T15:20:33.155Z,32.20
2022-09-05T15:23:11.290Z,32.20
2022-09-05T15:25:49.186Z,31.90
2022-09-05T15:28:34.579Z,32.80
2022-09-05T15:31:08.147Z,32.30
2022-09-05T15:33:38.226Z,32.80
2022-09-05T15:36:13.413Z,33.50
2022-09-05T15:38:54.476Z,34.00
2022-09-05T15:41:26.407Z,31.70
2022-09-05T15:44:02.032Z,34.60
2022-09-05T15:46:49.281Z,34.90
2022-09-05T15:49:38.952Z,35.00
2022-09-05T15:52:30.988Z,35.00
2022-09-05T15:55:06.011Z,34.70
2022-09-05T15:57:41.209Z,34.40
2022-09-05T16:00:15.575Z,34.50
2022-09-05T16:02:50.032Z,34.60
2022-09-05T16:10:39.696Z,33.90
2022-09-05T16:10:50.492Z,34.60
2022-09-05T16:12:03.737Z,33.90
2022-09-05T16:14:26.952Z,33.10
2022-09-05T16:23:12.137Z,31.90
2022-09-05T16:23:24.933Z,31.40
2022-09-05T16:23:32.901Z,30.90
2022-09-05T16:25:46.814Z,30.90
2022-09-05T16:28:21.180Z,30.70
2022-09-05T16:30:50.617Z,30.60
2022-09-05T16:33:25.761Z,30.40
2022-09-05T16:36:00.691Z,30.20
2022-09-05T16:38:48.947Z,30.50
2022-09-05T16:41:26.986Z,30.10
2022-09-05T16:44:00.018Z,30.00
2022-09-05T16:46:36.996Z,30.00
2022-09-05T16:49:14.837Z,29.80
2022-09-05T16:51:50.052Z,29.60
2022-09-05T16:54:26.840Z,29.30
2022-09-05T16:57:00.761Z,29.30
2022-09-05T16:59:33.011Z,29.20
2022-09-05T17:02:10.703Z,28.90
2022-09-05T17:05:05.718Z,28.50
2022-09-05T17:07:59.928Z,28.50
2022-09-05T17:10:33.467Z,27.90
2022-09-05T17:13:03.380Z,28.70
2022-09-05T17:15:36.536Z,28.30
2022-09-05T17:18:22.228Z,27.90
2022-09-05T17:20:58.145Z,28.20
2022-09-05T17:25:41.395Z,28.10
2022-09-05T17:29:47.188Z,27.90
2022-09-05T17:32:47.397Z,27.50
2022-09-05T17:35:36.133Z,27.80
2022-09-05T17:38:59.313Z,27.50
2022-09-05T17:41:58.174Z,27.20
2022-09-05T17:44:31.134Z,27.10
2022-09-05T17:47:15.315Z,26.90
2022-09-05T17:49:45.763Z,27.00
2022-09-05T17:52:24.110Z,26.50
2022-09-05T17:54:56.653Z,26.40
2022-09-05T17:57:42.399Z,26.30
2022-09-05T18:01:01.105Z,25.90
2022-09-05T18:04:16.419Z,25.80
2022-09-05T18:10:12.584Z,25.90
2022-09-05T18:16:10.578Z,25.20
2022-09-05T18:19:32.039Z,25.50
2022-09-05T18:21:49.700Z,25.70
2022-09-05T18:24:32.717Z,24.40
2022-09-05T18:30:09.585Z,24.40
2022-09-05T18:32:45.650Z,24.50
2022-09-05T18:35:36.167Z,24.50
2022-09-05T18:38:51.067Z,24.20
2022-09-05T18:41:23.010Z,24.10
2022-09-05T18:44:13.949Z,24.20
2022-09-05T18:46:51.030Z,25.10
2022-09-05T18:50:25.400Z,24.30
2022-09-05T18:52:23.478Z,23.80
2022-09-05T18:55:57.864Z,24.00
2022-09-05T18:57:52.149Z,24.20
2022-09-05T19:00:44.294Z,24.30
2022-09-05T19:03:24.997Z,23.90
2022-09-05T19:05:59.236Z,24.30
2022-09-05T19:08:52.171Z,24.40
2022-09-05T19:11:30.542Z,24.50
2022-09-05T19:14:26.382Z,24.20
2022-09-05T19:17:07.531Z,24.50
2022-09-05T19:20:31.530Z,24.00
2022-09-05T19:23:10.154Z,23.50
2022-09-05T19:25:44.362Z,23.80
2022-09-05T19:36:43.983Z,24.00
2022-09-05T19:36:57.982Z,23.50
2022-09-05T19:37:12.707Z,23.50
2022-09-05T19:37:24.391Z,23.50
2022-09-05T19:43:24.164Z,23.40
2022-09-05T19:47:33.800Z,23.20
2022-09-05T19:47:38.382Z,23.40
2022-09-05T19:48:26.362Z,23.10
2022-09-05T19:50:57.898Z,23.40
2022-09-05T19:53:26.244Z,23.30
2022-09-05T19:55:54.723Z,23.50
2022-09-05T19:58:24.696Z,23.10
2022-09-05T20:01:05.021Z,23.40
2022-09-05T20:03:38.946Z,22.90
2022-09-05T20:06:28.659Z,23.60
2022-09-05T20:09:10.764Z,23.40
2022-09-05T20:11:45.496Z,23.20
2022-09-05T20:14:22.552Z,23.30
2022-09-05T20:16:53.825Z,23.80
2022-09-05T20:19:29.690Z,23.20
2022-09-05T20:22:12.754Z,23.20
2022-09-05T20:24:52.517Z,23.40
2022-09-05T20:27:27.114Z,23.30
2022-09-05T20:29:59.708Z,22.90
2022-09-05T20:32:39.384Z,23.20
2022-09-05T20:37:52.932Z,23.20
2022-09-05T20:43:16.873Z,24.00
2022-09-05T20:43:23.809Z,23.30
2022-09-05T20:44:00.040Z,23.10
2022-09-05T20:51:36.538Z,23.10
2022-09-05T20:54:13.959Z,23.10
2022-09-05T20:54:15.844Z,23.20
2022-09-05T20:55:38.816Z,23.10
2022-09-05T20:58:12.813Z,23.00
2022-09-05T21:01:19.903Z,22.60
2022-09-05T21:03:40.069Z,22.90
2022-09-05T21:06:23.465Z,23.00
2022-09-05T21:08:55.978Z,23.30
2022-09-05T21:11:33.937Z,22.90
2022-09-05T21:14:05.093Z,23.30
2022-09-05T21:16:37.514Z,23.20
2022-09-05T21:19:05.879Z,23.30
2022-09-05T21:21:35.977Z,23.20
2022-09-05T21:24:18.155Z,23.90
2022-09-05T21:26:51.486Z,23.40
2022-09-05T21:29:33.015Z,23.60
2022-09-05T21:32:05.109Z,22.90
2022-09-05T21:34:45.041Z,23.10
2022-09-05T21:37:15.947Z,22.90
2022-09-05T21:40:00.326Z,22.50
2022-09-05T21:47:01.512Z,22.40
2022-09-05T21:47:39.905Z,22.90
2022-09-05T21:48:13.220Z,23.00
2022-09-05T21:50:46.070Z,22.40
2022-09-05T21:58:35.525Z,22.10
2022-09-05T21:59:24.589Z,22.30
2022-09-05T21:59:27.562Z,23.30
2022-09-05T22:01:59.932Z,22.60
2022-09-05T22:04:28.552Z,22.60
2022-09-05T22:06:58.940Z,22.40
2022-09-05T22:09:27.193Z,22.10
2022-09-05T22:11:56.435Z,22.60
2022-09-05T22:14:26.409Z,22.40
2022-09-05T22:17:01.405Z,23.40
2022-09-05T22:19:37.812Z,22.60
2022-09-05T22:22:16.280Z,22.40
2022-09-05T22:24:51.519Z,22.30
2022-09-05T22:27:22.629Z,22.10
2022-09-05T22:29:52.431Z,22.30
2022-09-05T22:32:32.385Z,22.00
2022-09-05T22:35:27.741Z,22.40
2022-09-05T22:37:55.279Z,22.90
2022-09-05T22:40:32.069Z,22.50
2022-09-05T22:43:02.529Z,22.00
2022-09-05T22:45:35.756Z,22.50
2022-09-05T22:48:09.237Z,22.10
2022-09-05T22:50:38.031Z,22.10
2022-09-05T22:53:08.540Z,21.60
2022-09-05T22:55:38.097Z,21.90
2022-09-05T22:58:08.723Z,21.70
2022-09-05T23:00:38.685Z,21.90
2022-09-05T23:03:08.076Z,21.70
2022-09-05T23:05:36.632Z,22.20
2022-09-05T23:08:07.060Z,21.80
2022-09-05T23:10:36.342Z,21.90
2022-09-05T23:13:06.119Z,21.80
2022-09-05T23:15:34.395Z,21.80
2022-09-05T23:18:04.841Z,21.40
2022-09-05T23:20:34.651Z,22.50
2022-09-05T23:23:05.901Z,21.70
2022-09-05T23:25:34.660Z,22.00
2022-09-05T23:28:06.868Z,21.80
2022-09-05T23:30:35.678Z,22.00
2022-09-05T23:33:07.100Z,22.40
2022-09-05T23:35:35.808Z,21.30
2022-09-05T23:38:04.217Z,21.50
2022-09-05T23:40:32.290Z,21.30
2022-09-05T23:43:01.304Z,21.50
2022-09-05T23:45:30.380Z,21.20
2022-09-05T23:47:59.221Z,21.90
2022-09-05T23:50:29.671Z,21.60
2022-09-05T23:52:58.067Z,21.80
2022-09-05T23:55:27.154Z,21.40
2022-09-05T23:57:58.388Z,22.40
